Beaverlodge, Canada
Current Conditions -  °F | °C
As of 12:00 PM on Friday 24 Oct 2014 (Local Time) from CYQU Reporting Station
Broken Clouds Broken Clouds  
Wind Chill: 34°   Ceiling: 21000
Heat Index: 39°   Visibility: 25mi
Dew Point: 34°   Wind: 7mph
Humidity: 81%   Direction: 280°W
Pressure: 29.84"   Gusts: NA
Location:  55.2°N, 119.45°W
Report Text: CYQU 241800Z 28006KT 25SM SCT160 BKN210 04/01 A2984 RMK AC3CI3 SLP135
Loading
Personal Weather Stations






























Interactive Weather Map
Tropical Storm Tracking
New forecast layout! Learn more

10-Day Weather Forecast

Advertisements
Track Severe Weather on mobile